Etusivu
METAR-TAF:

METAR-TAF

Lentoasemat :

Dušanbe, Tadžikistan

Dušanben kansainvälinen lentoasema

Leveyspiiri: 38-33N, Pituuspiiri: 068-47E, korkeus merenpinnasta: 803 m

Tämänhetkinen sää

Tämä raportti tehtiin 38 minuuttia sitten, kello 04.00 UTC
Tuuli 4 kn eri suunnista
Lämpötila 31°C
Kosteus 31%
Ilmanpaine 1006 hPa
Näkyvyys 10 km tai enemmän

METAR: UTDD 270400Z VRB02MPS 9999 NSC 31/12 Q1006 R09/D NOSIG RMK QFE686/0915

Aika: 09:38 (04:38 UTC)

Sääennuste

Tämä raportti tehtiin 1 tunti ja 38 minuuttia sitten, kello 03.00 UTC
Ennuste voimassa 27. päivästä klo 04 UTC - 27. päivään klo 16 UTC
Tuuli 4 kn eri suunnista
Näkyvyys: 6000 m
Muutamia pilviä 6600 ft:n korkeudessa
Hajanaisia pilviä 15000 ft:n korkeudessa
Ajoittain
27. päivästä klo 07 UTC - 27. päivään klo 16 UTC
Tuuli 10 kn lännestä

TAF: UTDD 270300Z 2704/2716 VRB02MPS 6000 FEW066 SCT150 TEMPO 2707/2716 27005MPS

Säähavainnot ja -ennusteet yli 4000 lentoasemalta (METAR- ja TAF-raportit).

Käytössä olevat sääasemat on merkitty karttaan keltaisilla ja punaisilla pisteillä.

Aseta hiiri pisteen päälle nähdäksesi sääaseman nimen.

Klikkaa sitten nähdäksesi säähavainnot ja -ennusteet.

Kartan vaihtaminen: klikkaa mustalla rastilla varustettuja vihreitä pisteitä, niin voit zoomata sisään; viivalla varustettua vihreää pistettä, niin voit zoomata ulos tai vihreitä nuolia, niin pääset viereisille kartoille.


METAR-TAF: